Hauptseite
METAR-TAF:

METAR-TAF

Flughäfen :

Sable Island, Neuschottland, Kanada

Breite: 43-56N, Länge: 060-01W, Höhe: 4 m

Beobachtung

Neuester Wetterbericht von vor 31 Minuten, um 21:00 UTC
Wind 11 kt aus Nordwest, variierte zwischen West/Nordwest und Nord
Temperatur 2°C
Luftfeuchtigkeit 60%
Luftdruck 1026 hPa
Sichtweite: 14.5 km
Leicht bewölkt in der Höhe von 3400 ft

METAR: CWSA 182100Z AUTO 31011KT 290V350 9SM FEW034 02/M05 A3030 RMK SLP262

Zeit: 17:31 (21:31 UTC)

Prognose

Neuester Wetterbericht von vor 1 Stunde und 53 Minuten, um 19:38 UTC
Gültige Prognose vom 18 um 20 UTC bis 19 um 01 UTC
Wind 12 kt aus Nordwest, Böen bis zu 22 kt
Sichtweite: 10 km
Leicht bewölkt in der Höhe von 8000 ft
Übergehend zu
vom 18 um 22 UTC bis 18 um 24 UTC
Wind 8 kt aus Nordwest

TAF: CWSA 181938Z 1820/1901 32012G22KT P6SM FEW080 BECMG 1822/1824 32008KT RMK FCST BASED ON AUTO OBS. NXT FCST WILL BE ISSUED AT 190845Z

Wetterbeobachtungen und Prognosen von mehr als 4000 Flughäfen (METAR und TAF Bericht).

Die verfügbaren Stationen werden durch gelbe und rote Markierungen auf der Karte dargestellt.

Führen Sie die Maus auf sie, um den Namen der Station zu sehen.

Darauf klicken, um die Beobachtung von Wetterbeobachtungen und Prognosen zu sehen.

Um die Karte zu ändern : klicken Sie auf den grünen Tasten mit einem schwarzen Kreuz Zum Vergrößern, auf den grünen Button mit einem Gedankenstrich zu verkleinern, oder auf die grünen Pfeile für benachbarte Karten.


METAR-TAF: